Time;durP1;ratioP1;P1;durP2;ratioP2;P2;SDS_P1;SDS_P2;PMS_P1;PMS_P2;Temp;Humidity;BMP_temperature;BMP_pressure;BME280_temperature;BME280_humidity;BME280_pressure;Samples;Min_cycle;Max_cycle;Signal;HPM_P1;HPM_P2
2022/07/10 00:00:17;;;;;;;17.38;11.82;;;14.80;99.90;;;;;;5100134;28;20025;-59
2022/07/10 00:02:43;;;;;;;16.60;10.85;;;14.90;99.90;;;;;;5101374;28;20030;-59
2022/07/10 00:05:10;;;;;;;19.92;11.73;;;14.80;99.90;;;;;;5104657;28;20034;-59
2022/07/10 00:07:36;;;;;;;;;;;14.60;99.90;;;;;;5113067;28;20028;-59
2022/07/10 00:10:04;;;;;;;20.77;12.30;;;14.50;99.90;;;;;;5105136;28;19922;-59
2022/07/10 00:12:30;;;;;;;19.83;12.32;;;14.60;99.90;;;;;;5103068;28;20073;-58
2022/07/10 00:14:56;;;;;;;19.88;11.77;;;14.40;99.90;;;;;;5101754;28;20032;-58
2022/07/10 00:17:22;;;;;;;18.33;10.20;;;14.50;99.90;;;;;;5101701;28;20538;-58
2022/07/10 00:19:47;;;;;;;16.65;11.27;;;14.60;99.90;;;;;;5101785;28;20120;-57
2022/07/10 00:22:13;;;;;;;17.85;10.85;;;14.50;99.90;;;;;;5102664;28;20083;-57
2022/07/10 00:24:39;;;;;;;16.45;11.35;;;14.60;99.90;;;;;;5100656;28;20030;-57
2022/07/10 00:27:05;;;;;;;19.30;10.90;;;14.50;99.90;;;;;;5101168;28;20493;-58
2022/07/10 00:29:30;;;;;;;15.95;10.52;;;14.50;99.90;;;;;;5102731;28;20024;-58
2022/07/10 00:31:56;;;;;;;16.42;9.95;;;14.50;99.90;;;;;;5101318;28;20149;-58
2022/07/10 00:34:21;;;;;;;16.45;9.43;;;14.50;99.90;;;;;;5101118;28;20027;-59
2022/07/10 00:36:47;;;;;;;14.57;9.63;;;14.50;99.90;;;;;;5102639;28;20027;-59
2022/07/10 00:39:13;;;;;;;14.15;10.20;;;14.60;99.90;;;;;;5100547;28;20016;-59
2022/07/10 00:41:38;;;;;;;14.43;9.45;;;14.60;99.90;;;;;;5101480;28;20420;-59
2022/07/10 00:44:04;;;;;;;15.40;10.07;;;14.50;99.90;;;;;;5108218;28;20027;-58
2022/07/10 00:46:33;;;;;;;17.33;9.45;;;14.50;99.90;;;;;;5111968;28;20070;-58
2022/07/10 00:48:59;;;;;;;15.45;10.13;;;14.50;99.90;;;;;;5098238;28;20042;-58
2022/07/10 00:51:27;;;;;;;14.68;9.45;;;14.40;99.90;;;;;;5091572;28;20095;-58
2022/07/10 00:53:53;;;;;;;16.10;10.00;;;14.40;99.90;;;;;;5089881;28;20119;-58
2022/07/10 00:56:24;;;;;;;15.50;9.98;;;14.30;99.90;;;;;;5091448;28;20095;-57
2022/07/10 00:58:50;;;;;;;13.30;8.38;;;14.30;99.90;;;;;;5089640;28;20048;-57
2022/07/10 01:01:17;;;;;;;15.40;9.35;;;14.30;99.90;;;;;;5091244;28;20491;-58
2022/07/10 01:03:43;;;;;;;12.43;9.23;;;14.40;99.90;;;;;;5090972;28;20558;-58
2022/07/10 01:06:09;;;;;;;13.85;9.23;;;14.50;99.90;;;;;;5090891;28;20019;-57
2022/07/10 01:08:36;;;;;;;17.27;9.55;;;14.40;99.90;;;;;;5091023;28;20036;-57
2022/07/10 01:11:02;;;;;;;14.57;8.60;;;14.40;99.90;;;;;;5088306;28;20028;-58
2022/07/10 01:13:29;;;;;;;14.27;8.57;;;14.50;99.90;;;;;;5090548;28;20031;-57
2022/07/10 01:15:55;;;;;;;;;;;14.50;99.90;;;;;;5091502;28;20502;-58
2022/07/10 01:18:21;;;;;;;12.73;8.02;;;14.60;99.90;;;;;;5091162;28;19908;-58
2022/07/10 01:20:50;;;;;;;12.43;8.13;;;14.50;99.90;;;;;;5091305;28;20552;-58
2022/07/10 01:23:16;;;;;;;14.88;7.63;;;14.50;99.90;;;;;;5091021;28;20078;-57
2022/07/10 01:25:42;;;;;;;10.30;6.70;;;14.30;99.90;;;;;;5090915;28;20467;-58
2022/07/10 01:28:07;;;;;;;15.07;6.72;;;14.30;99.90;;;;;;5090757;28;20043;-57
2022/07/10 01:30:33;;;;;;;10.85;7.20;;;14.30;99.90;;;;;;5090602;28;20460;-57
2022/07/10 01:32:59;;;;;;;9.35;6.65;;;14.40;99.90;;;;;;5089464;28;20106;-57
2022/07/10 01:35:25;;;;;;;9.88;7.55;;;14.40;99.90;;;;;;5090365;28;20352;-58
2022/07/10 01:37:50;;;;;;;12.55;7.65;;;14.30;99.90;;;;;;5090172;28;20055;-57
2022/07/10 01:40:16;;;;;;;10.05;7.05;;;14.30;99.90;;;;;;5090813;28;20028;-57
2022/07/10 01:42:43;;;;;;;12.50;7.03;;;14.30;99.90;;;;;;5091121;28;20039;-57
2022/07/10 01:45:09;;;;;;;10.70;6.68;;;14.40;99.90;;;;;;5090814;28;20475;-58
2022/07/10 01:47:35;;;;;;;11.77;6.50;;;14.30;99.90;;;;;;5090828;28;20032;-59
2022/07/10 01:50:01;;;;;;;10.98;6.65;;;14.40;99.90;;;;;;5091024;28;20032;-58
2022/07/10 01:52:27;;;;;;;13.13;7.50;;;14.40;99.90;;;;;;5090782;28;20443;-58
2022/07/10 01:54:52;;;;;;;13.57;7.50;;;14.50;99.90;;;;;;5090574;28;20464;-58
2022/07/10 01:57:18;;;;;;;14.35;6.95;;;14.50;99.90;;;;;;5090212;28;20031;-58
2022/07/10 01:59:44;;;;;;;11.43;6.65;;;14.40;99.90;;;;;;5090382;28;20498;-58
2022/07/10 02:02:10;;;;;;;13.75;7.28;;;14.60;99.90;;;;;;5090677;28;20107;-58
2022/07/10 02:04:41;;;;;;;11.85;7.28;;;14.50;99.90;;;;;;5090667;28;20419;-57
2022/07/10 02:07:11;;;;;;;14.48;6.43;;;14.50;99.90;;;;;;5090319;28;20028;-59
2022/07/10 02:09:37;;;;;;;12.77;7.00;;;14.40;99.90;;;;;;5090617;28;20036;-58
2022/07/10 02:12:03;;;;;;;10.23;6.82;;;14.50;99.90;;;;;;5090272;28;20490;-58
2022/07/10 02:14:29;;;;;;;9.48;6.82;;;14.60;99.90;;;;;;5088968;28;20084;-58
2022/07/10 02:16:55;;;;;;;13.65;7.30;;;14.60;99.90;;;;;;5090553;28;20534;-58
2022/07/10 02:19:21;;;;;;;11.50;6.28;;;14.60;99.90;;;;;;5090374;28;20032;-58
2022/07/10 02:21:47;;;;;;;12.10;7.22;;;14.60;99.90;;;;;;5090114;28;20024;-58
2022/07/10 02:24:12;;;;;;;10.65;6.70;;;14.60;99.90;;;;;;5088812;28;20161;-58
2022/07/10 02:26:38;;;;;;;9.57;6.78;;;14.50;99.90;;;;;;5090236;28;20028;-57
2022/07/10 02:29:04;;;;;;;12.10;6.78;;;14.60;99.90;;;;;;5090180;28;20486;-58
2022/07/10 02:31:30;;;;;;;9.73;6.80;;;14.60;99.90;;;;;;5090031;28;20515;-58
2022/07/10 02:33:55;;;;;;;12.55;7.60;;;14.70;99.90;;;;;;5090039;28;20032;-58
2022/07/10 02:36:21;;;;;;;10.15;5.30;;;14.50;99.90;;;;;;5090536;28;20093;-58
2022/07/10 02:38:47;;;;;;;11.85;6.65;;;14.40;99.90;;;;;;5089971;28;20032;-58
2022/07/10 02:41:12;;;;;;;10.48;6.13;;;14.30;99.90;;;;;;5090016;28;20028;-58
2022/07/10 02:43:38;;;;;;;9.32;5.93;;;14.30;99.90;;;;;;5089909;28;20387;-58
2022/07/10 02:46:04;;;;;;;11.20;6.97;;;14.20;99.90;;;;;;5089936;28;20024;-59
2022/07/10 02:48:30;;;;;;;10.55;6.43;;;14.10;99.90;;;;;;5089816;28;20047;-58
2022/07/10 02:50:55;;;;;;;9.70;6.53;;;14.20;99.90;;;;;;5090191;28;20023;-58
2022/07/10 02:53:21;;;;;;;16.45;7.45;;;14.20;99.90;;;;;;5089956;28;20028;-58
2022/07/10 02:55:47;;;;;;;12.57;6.18;;;14.20;99.90;;;;;;5089811;28;20127;-57
2022/07/10 02:58:15;;;;;;;10.05;6.75;;;14.30;99.90;;;;;;5089470;28;20052;-57
2022/07/10 03:00:41;;;;;;;11.85;6.95;;;14.30;99.90;;;;;;5089994;28;20032;-58
2022/07/10 03:03:07;;;;;;;9.93;6.07;;;14.30;99.90;;;;;;5089677;28;20054;-58
2022/07/10 03:05:33;;;;;;;12.43;7.18;;;14.30;99.90;;;;;;5089822;28;20020;-58
2022/07/10 03:07:59;;;;;;;12.65;6.15;;;14.40;99.90;;;;;;5089459;28;20064;-58
2022/07/10 03:10:25;;;;;;;11.38;6.78;;;14.30;99.90;;;;;;5093184;28;20470;-57
2022/07/10 03:12:50;;;;;;;9.38;5.65;;;14.50;99.90;;;;;;5093750;28;20491;-60
2022/07/10 03:15:16;;;;;;;11.52;6.30;;;14.50;99.90;;;;;;5093656;28;20164;-57
2022/07/10 03:17:42;;;;;;;10.30;5.43;;;14.50;99.90;;;;;;5093683;28;20386;-57
2022/07/10 03:20:08;;;;;;;9.77;6.15;;;14.50;99.90;;;;;;5093691;28;20016;-57
2022/07/10 03:22:34;;;;;;;8.87;5.90;;;14.50;99.90;;;;;;5093579;28;20436;-57
2022/07/10 03:25:00;;;;;;;11.50;5.70;;;14.50;99.90;;;;;;5093451;28;20536;-57
2022/07/10 03:27:26;;;;;;;12.57;5.70;;;14.50;99.90;;;;;;5093389;28;20679;-58
2022/07/10 03:29:52;;;;;;;10.98;5.75;;;14.50;99.90;;;;;;5093242;28;20028;-58
2022/07/10 03:32:18;;;;;;;10.70;4.97;;;14.50;99.90;;;;;;5093577;28;20035;-57
2022/07/10 03:34:43;;;;;;;9.77;5.25;;;14.50;99.90;;;;;;5093105;28;20050;-58
2022/07/10 03:37:09;;;;;;;9.75;5.50;;;14.50;99.90;;;;;;5093384;28;20502;-57
2022/07/10 03:39:35;;;;;;;9.20;5.35;;;14.60;99.90;;;;;;5093080;28;20825;-58
2022/07/10 03:42:00;;;;;;;8.50;5.13;;;14.60;99.90;;;;;;5093046;28;20077;-57
2022/07/10 03:44:26;;;;;;;8.25;4.80;;;14.60;99.90;;;;;;5093424;28;20032;-57
2022/07/10 03:46:52;;;;;;;8.00;4.05;;;14.60;99.90;;;;;;5093026;28;20024;-58
2022/07/10 03:49:18;;;;;;;6.63;4.30;;;14.60;99.90;;;;;;5091575;28;20039;-57
2022/07/10 03:51:43;;;;;;;6.32;4.22;;;14.70;99.90;;;;;;5093107;28;20031;-57
2022/07/10 03:54:09;;;;;;;7.75;4.60;;;14.70;99.90;;;;;;5092895;28;20487;-58
2022/07/10 03:59:19;;;;;;;10.30;5.28;;;14.80;99.90;;;;;;5092780;28;20097;-58
2022/07/10 04:01:45;;;;;;;8.85;5.72;;;14.80;99.90;;;;;;5093119;28;20016;-58
2022/07/10 04:04:11;;;;;;;10.90;6.60;;;14.90;99.90;;;;;;5092650;28;20046;-57
2022/07/10 04:06:39;;;;;;;11.02;7.18;;;14.90;99.90;;;;;;5092548;28;20024;-57
2022/07/10 04:09:05;;;;;;;15.43;7.82;;;15.00;99.90;;;;;;5092445;28;20764;-57
2022/07/10 04:11:31;;;;;;;14.00;8.05;;;15.10;99.90;;;;;;5093128;28;20050;-57
2022/07/10 04:13:57;;;;;;;14.25;7.25;;;15.10;99.90;;;;;;5093066;28;20028;-57
2022/07/10 04:16:23;;;;;;;13.57;7.70;;;15.00;99.90;;;;;;5092666;28;20528;-57
2022/07/10 04:18:49;;;;;;;15.88;8.73;;;15.10;99.90;;;;;;5092556;28;20024;-58
2022/07/10 04:21:15;;;;;;;10.77;7.05;;;15.10;99.90;;;;;;5090835;28;20059;-58
2022/07/10 04:23:40;;;;;;;9.80;5.93;;;15.10;99.90;;;;;;5092200;28;20434;-58
2022/07/10 04:26:06;;;;;;;9.10;5.55;;;15.10;99.90;;;;;;5092779;28;20035;-58
2022/07/10 04:28:32;;;;;;;8.40;5.53;;;15.10;99.90;;;;;;5092535;28;20443;-58
2022/07/10 04:30:57;;;;;;;10.95;6.68;;;15.10;99.90;;;;;;5092376;28;20031;-58
2022/07/10 04:33:24;;;;;;;8.25;5.75;;;15.10;99.90;;;;;;5091313;28;20073;-57
2022/07/10 04:35:50;;;;;;;10.07;5.70;;;15.10;99.90;;;;;;5092101;28;20043;-58
2022/07/10 04:38:16;;;;;;;7.05;5.45;;;15.10;99.90;;;;;;5092091;28;20028;-58
2022/07/10 04:40:41;;;;;;;8.32;4.82;;;15.00;99.90;;;;;;5092065;28;20426;-58
2022/07/10 04:43:07;;;;;;;6.63;4.10;;;15.10;99.90;;;;;;5092123;28;20024;-57
2022/07/10 04:45:33;;;;;;;7.07;4.20;;;15.20;99.90;;;;;;5091999;28;20081;-58
2022/07/10 04:47:58;;;;;;;5.18;3.50;;;15.20;99.90;;;;;;5091837;28;20077;-58
2022/07/10 04:50:24;;;;;;;7.13;4.15;;;15.20;99.90;;;;;;5090547;28;20495;-58
2022/07/10 04:52:50;;;;;;;5.15;3.30;;;15.20;99.90;;;;;;5091331;28;20028;-58
2022/07/10 04:55:16;;;;;;;11.90;4.13;;;15.20;99.90;;;;;;5091859;28;20566;-58
2022/07/10 04:57:44;;;;;;;4.10;3.03;;;15.20;99.90;;;;;;5090303;28;20040;-58
2022/07/10 05:00:10;;;;;;;5.07;3.25;;;15.30;99.90;;;;;;5091973;28;20124;-58
2022/07/10 05:02:36;;;;;;;7.43;3.00;;;15.30;99.90;;;;;;5090269;28;20079;-57
2022/07/10 05:05:02;;;;;;;10.20;2.95;;;15.30;99.90;;;;;;5091693;28;20560;-58
2022/07/10 05:07:28;;;;;;;6.05;3.42;;;15.20;99.90;;;;;;5091467;28;20139;-58
2022/07/10 05:09:54;;;;;;;5.68;3.42;;;15.20;99.90;;;;;;5091765;28;20113;-58
2022/07/10 05:12:20;;;;;;;3.88;2.80;;;15.30;99.90;;;;;;5091771;28;20076;-58
2022/07/10 05:14:45;;;;;;;5.55;3.13;;;15.30;99.90;;;;;;5091512;28;20382;-58
2022/07/10 05:17:11;;;;;;;4.53;2.85;;;15.30;99.90;;;;;;5091434;28;20136;-58
2022/07/10 05:19:37;;;;;;;5.80;2.83;;;15.30;99.90;;;;;;5091179;28;20024;-58
2022/07/10 05:22:03;;;;;;;7.30;3.13;;;15.40;99.90;;;;;;5091592;28;20039;-58
2022/07/10 05:24:28;;;;;;;4.30;2.50;;;15.50;99.90;;;;;;5091182;28;20024;-58
2022/07/10 05:26:54;;;;;;;6.72;3.25;;;15.50;99.90;;;;;;5091200;28;20047;-58
2022/07/10 05:29:20;;;;;;;4.85;3.00;;;15.60;99.90;;;;;;5091100;28;20730;-59
2022/07/10 05:31:45;;;;;;;8.50;3.05;;;15.60;99.90;;;;;;5090283;28;20024;-57
2022/07/10 05:34:11;;;;;;;6.97;3.35;;;15.60;99.90;;;;;;5091031;28;20499;-57
2022/07/10 05:36:36;;;;;;;7.22;2.75;;;15.70;99.90;;;;;;5089598;28;20028;-58
2022/07/10 05:39:03;;;;;;;7.38;3.40;;;15.90;99.90;;;;;;5089508;28;20059;-57
2022/07/10 05:41:28;;;;;;;3.90;2.60;;;15.80;99.90;;;;;;5090986;28;20059;-57
2022/07/10 05:43:55;;;;;;;4.65;3.33;;;15.80;99.90;;;;;;5091196;28;20074;-58
2022/07/10 05:46:20;;;;;;;5.10;3.47;;;15.80;99.90;;;;;;5091029;28;20028;-57
2022/07/10 05:48:46;;;;;;;7.32;2.92;;;15.90;99.90;;;;;;5090748;28;20113;-57
2022/07/10 05:51:12;;;;;;;5.57;3.45;;;15.80;99.90;;;;;;5090978;28;20027;-57
2022/07/10 05:53:37;;;;;;;8.27;3.17;;;15.80;99.90;;;;;;5090689;28;20533;-58
2022/07/10 05:56:03;;;;;;;4.78;2.85;;;15.80;99.90;;;;;;5090697;28;20036;-57
2022/07/10 05:58:29;;;;;;;6.45;3.70;;;15.80;99.90;;;;;;5090543;28;20055;-58
2022/07/10 06:00:55;;;;;;;8.48;3.47;;;15.70;99.90;;;;;;5090595;28;20550;-57
2022/07/10 06:03:21;;;;;;;8.30;3.53;;;15.70;99.90;;;;;;5090325;28;20103;-57
2022/07/10 06:05:47;;;;;;;8.95;3.78;;;15.80;99.90;;;;;;5090819;28;20132;-57
2022/07/10 06:08:13;;;;;;;9.50;4.18;;;15.80;99.90;;;;;;5090345;28;20475;-57
2022/07/10 06:10:40;;;;;;;9.80;3.72;;;15.80;99.90;;;;;;5088958;28;20069;-58
2022/07/10 06:13:06;;;;;;;6.40;3.22;;;15.80;99.90;;;;;;5090412;28;20093;-57
2022/07/10 06:15:32;;;;;;;8.30;3.20;;;15.90;99.90;;;;;;5090428;28;20032;-58
2022/07/10 06:17:58;;;;;;;7.32;2.75;;;15.80;99.90;;;;;;5090190;28;20039;-58
2022/07/10 06:20:25;;;;;;;5.90;2.50;;;15.80;99.90;;;;;;5090362;28;20570;-58
2022/07/10 06:22:51;;;;;;;8.98;3.67;;;15.90;99.90;;;;;;5090186;28;20047;-57
2022/07/10 06:25:16;;;;;;;10.55;3.53;;;15.90;99.90;;;;;;5090422;28;20542;-57
2022/07/10 06:27:42;;;;;;;8.27;2.83;;;16.00;99.90;;;;;;5090048;28;20498;-56
2022/07/10 06:30:08;;;;;;;4.72;2.85;;;16.00;99.90;;;;;;5090135;28;20032;-58
2022/07/10 06:32:34;;;;;;;4.30;2.08;;;16.10;99.90;;;;;;5090202;28;20038;-57
2022/07/10 06:34:59;;;;;;;7.43;2.05;;;16.00;99.90;;;;;;5089965;28;20028;-57
2022/07/10 06:37:25;;;;;;;8.45;2.13;;;16.00;99.90;;;;;;5090069;28;20035;-57
2022/07/10 06:39:51;;;;;;;5.38;2.30;;;16.00;99.90;;;;;;5088803;28;20388;-58
2022/07/10 06:42:17;;;;;;;8.05;1.65;;;16.00;99.90;;;;;;5090119;28;20475;-57
2022/07/10 06:44:43;;;;;;;3.17;1.10;;;16.00;99.90;;;;;;5088558;28;20020;-57
2022/07/10 06:49:55;;;;;;;6.72;1.98;;;16.00;99.90;;;;;;5090120;28;20047;-56
2022/07/10 06:52:21;;;;;;;5.28;1.50;;;16.00;99.90;;;;;;5089689;28;20107;-58
2022/07/10 06:54:47;;;;;;;11.68;1.65;;;16.00;99.90;;;;;;5089949;28;20197;-58
2022/07/10 06:57:13;;;;;;;7.63;1.98;;;15.90;99.90;;;;;;5089702;28;20074;-58
2022/07/10 06:59:39;;;;;;;6.00;2.17;;;15.90;99.90;;;;;;5089730;28;20028;-58
2022/07/10 07:02:04;;;;;;;7.70;2.60;;;15.90;99.90;;;;;;5090016;28;20042;-58
2022/07/10 07:04:30;;;;;;;5.50;1.90;;;16.00;99.90;;;;;;5089445;28;20368;-57
2022/07/10 07:06:56;;;;;;;6.53;1.48;;;16.30;99.90;;;;;;5089850;28;20044;-58
2022/07/10 07:09:21;;;;;;;5.88;1.65;;;16.60;99.90;;;;;;5089434;28;20051;-58
2022/07/10 07:11:47;;;;;;;5.53;1.50;;;16.60;99.90;;;;;;5089720;28;20019;-57
2022/07/10 07:14:13;;;;;;;6.28;2.00;;;16.70;99.90;;;;;;5089888;28;20024;-58
2022/07/10 07:16:42;;;;;;;5.15;1.10;;;16.70;99.90;;;;;;5089631;28;20447;-58
2022/07/10 07:19:16;;;;;;;3.78;1.30;;;16.70;99.90;;;;;;5089746;28;20020;-58
2022/07/10 07:24:26;;;;;;;2.38;0.88;;;16.80;99.90;;;;;;5089888;28;20059;-58
2022/07/10 07:26:52;;;;;;;3.72;1.30;;;17.00;99.90;;;;;;5089615;28;20468;-58
2022/07/10 07:29:18;;;;;;;7.13;1.65;;;17.00;99.90;;;;;;5089396;28;20115;-58
2022/07/10 07:31:44;;;;;;;5.50;1.15;;;17.00;99.90;;;;;;5089582;28;20062;-57
2022/07/10 07:34:10;;;;;;;4.13;1.35;;;16.90;99.90;;;;;;5089725;28;20028;-57
2022/07/10 07:36:36;;;;;;;2.08;0.85;;;16.90;99.90;;;;;;5089572;28;20024;-57
2022/07/10 07:39:02;;;;;;;3.60;1.13;;;17.00;99.90;;;;;;5089063;28;20032;-57
2022/07/10 07:41:28;;;;;;;2.60;0.73;;;16.90;99.90;;;;;;5089416;28;20024;-59
2022/07/10 07:43:54;;;;;;;3.45;0.82;;;16.90;99.90;;;;;;5089777;28;20028;-57
2022/07/10 07:46:20;;;;;;;5.68;1.10;;;16.80;99.90;;;;;;5089466;28;20023;-58
2022/07/10 07:48:46;;;;;;;4.80;1.60;;;16.80;99.90;;;;;;5089388;28;20028;-57
2022/07/10 07:51:11;;;;;;;4.15;1.10;;;16.80;99.90;;;;;;5089618;28;20036;-57
2022/07/10 07:53:37;;;;;;;6.55;1.27;;;16.60;99.90;;;;;;5089301;28;20027;-58
2022/07/10 07:56:03;;;;;;;7.05;1.27;;;16.60;99.90;;;;;;5091524;28;20028;-58
2022/07/10 07:58:29;;;;;;;5.40;1.38;;;16.70;99.90;;;;;;5092650;28;20100;-58
2022/07/10 08:00:56;;;;;;;3.88;1.30;;;16.70;99.90;;;;;;5093183;28;20036;-58
2022/07/10 08:03:22;;;;;;;2.35;1.02;;;16.70;99.90;;;;;;5092881;28;20036;-58
2022/07/10 08:05:49;;;;;;;7.38;1.95;;;16.80;99.90;;;;;;5093039;28;20032;-58
2022/07/10 08:08:15;;;;;;;6.05;1.10;;;16.80;99.90;;;;;;5092951;28;20076;-58
2022/07/10 08:10:41;;;;;;;5.93;1.20;;;17.00;99.90;;;;;;5092635;28;20024;-58
2022/07/10 08:13:07;;;;;;;6.20;2.05;;;17.20;99.90;;;;;;5091521;28;20034;-58
2022/07/10 08:15:34;;;;;;;2.83;1.55;;;17.40;99.90;;;;;;5092842;28;20024;-58
2022/07/10 08:18:03;;;;;;;7.13;1.13;;;17.30;99.90;;;;;;5092629;28;20040;-58
2022/07/10 08:20:29;;;;;;;4.68;1.33;;;17.40;99.90;;;;;;5092582;28;20024;-58
2022/07/10 08:22:55;;;;;;;4.55;1.00;;;17.40;99.90;;;;;;5092325;28;20107;-57
2022/07/10 08:25:22;;;;;;;5.20;1.85;;;17.30;99.90;;;;;;5092504;28;20095;-58
2022/07/10 08:27:47;;;;;;;5.43;1.17;;;17.40;99.90;;;;;;5092336;28;20032;-58
2022/07/10 08:30:13;;;;;;;5.05;1.00;;;17.40;99.90;;;;;;5092408;28;20024;-57
2022/07/10 08:32:39;;;;;;;11.90;2.28;;;17.40;99.90;;;;;;5090811;28;20027;-58
2022/07/10 08:35:06;;;;;;;4.18;1.08;;;17.40;99.90;;;;;;5092288;28;20038;-58
2022/07/10 08:37:39;;;;;;;6.85;1.55;;;17.30;99.90;;;;;;5092263;28;20032;-57
2022/07/10 08:40:06;;;;;;;3.67;0.95;;;17.30;99.90;;;;;;5092099;28;20036;-58
2022/07/10 08:42:32;;;;;;;5.28;1.58;;;17.20;99.90;;;;;;5090958;28;20050;-57
2022/07/10 08:44:59;;;;;;;4.27;1.43;;;17.00;99.90;;;;;;5091977;28;20024;-57
2022/07/10 08:47:25;;;;;;;7.10;2.25;;;16.80;99.90;;;;;;5091840;28;20281;-57
2022/07/10 08:49:51;;;;;;;4.63;1.30;;;16.80;99.90;;;;;;5091965;28;20028;-57
2022/07/10 08:52:42;;;;;;;5.90;1.30;;;16.80;99.90;;;;;;5092020;28;20043;-58
2022/07/10 08:55:11;;;;;;;2.92;1.10;;;16.80;99.90;;;;;;5091807;28;20054;-57
2022/07/10 08:57:38;;;;;;;8.52;1.45;;;16.80;99.90;;;;;;5090055;28;20051;-57
2022/07/10 09:00:04;;;;;;;4.15;1.05;;;16.80;99.90;;;;;;5091792;28;20032;-58
2022/07/10 09:02:30;;;;;;;3.40;0.80;;;16.80;99.90;;;;;;5091518;28;20032;-57
2022/07/10 09:04:56;;;;;;;2.63;0.82;;;16.90;99.90;;;;;;5091627;28;20081;-58
2022/07/10 09:07:21;;;;;;;6.55;1.42;;;16.90;99.90;;;;;;5089995;28;20025;-57
2022/07/10 09:09:54;;;;;;;4.82;1.02;;;16.90;99.90;;;;;;5091465;28;20036;-58
2022/07/10 09:12:21;;;;;;;5.00;0.88;;;17.20;99.90;;;;;;5091339;28;20475;-57
2022/07/10 09:14:47;;;;;;;3.90;0.80;;;17.30;99.90;;;;;;5091423;28;20067;-58
2022/07/10 09:17:13;;;;;;;3.92;0.85;;;17.40;99.90;;;;;;5091248;28;20048;-57
2022/07/10 09:19:39;;;;;;;7.93;1.45;;;17.40;99.80;;;;;;5091376;28;20024;-58
2022/07/10 09:22:09;;;;;;;5.40;1.27;;;17.50;98.50;;;;;;5091324;28;20081;-58
2022/07/10 09:24:37;;;;;;;6.85;1.40;;;17.40;98.90;;;;;;5091204;28;20028;-58
2022/07/10 09:27:04;;;;;;;7.35;0.88;;;17.40;98.70;;;;;;5091130;28;20024;-59
2022/07/10 09:29:31;;;;;;;3.37;1.00;;;17.40;99.90;;;;;;5091158;28;20036;-59
2022/07/10 09:32:02;;;;;;;5.13;0.80;;;17.40;99.90;;;;;;5090970;28;20270;-58
2022/07/10 09:34:41;;;;;;;3.22;0.85;;;17.30;98.40;;;;;;5089576;28;20043;-58
2022/07/10 09:37:20;;;;;;;5.68;1.40;;;17.30;98.00;;;;;;5090917;28;20027;-58
2022/07/10 09:39:54;;;;;;;6.47;1.15;;;17.40;99.90;;;;;;5091015;28;20039;-58
2022/07/10 09:42:27;;;;;;;3.53;1.08;;;17.40;99.40;;;;;;5089389;28;20028;-58
2022/07/10 09:45:18;;;;;;;2.85;0.90;;;17.50;99.90;;;;;;5090662;28;20024;-58
2022/07/10 09:48:04;;;;;;;4.53;1.17;;;17.40;99.30;;;;;;5090705;28;20094;-58
2022/07/10 09:50:36;;;;;;;7.00;1.50;;;17.30;99.10;;;;;;5090379;28;20028;-58
2022/07/10 09:53:06;;;;;;;4.65;1.00;;;17.10;97.30;;;;;;5093197;28;20058;-58
2022/07/10 09:55:36;;;;;;;4.97;1.00;;;17.00;98.40;;;;;;5098913;28;20491;-58
2022/07/10 09:58:04;;;;;;;8.20;1.13;;;16.80;98.80;;;;;;5100591;28;20059;-58
2022/07/10 10:00:33;;;;;;;5.32;1.23;;;16.60;99.90;;;;;;5099175;28;20101;-59
2022/07/10 10:03:01;;;;;;;8.52;1.20;;;16.60;99.90;;;;;;5101786;27;20051;-58
2022/07/10 10:05:35;;;;;;;4.20;1.00;;;16.50;99.90;;;;;;5097484;28;20030;-58
2022/07/10 10:08:12;;;;;;;4.47;1.10;;;16.40;99.90;;;;;;5096951;28;20044;-59
2022/07/10 10:10:43;;;;;;;7.40;1.60;;;16.50;99.90;;;;;;5101173;28;20573;-59
2022/07/10 10:13:11;;;;;;;3.15;1.08;;;16.60;99.90;;;;;;5106550;28;20027;-58
2022/07/10 10:15:38;;;;;;;9.30;1.23;;;16.80;99.90;;;;;;5110670;28;20027;-58
2022/07/10 10:18:06;;;;;;;8.98;1.45;;;17.00;99.90;;;;;;5110041;28;20015;-59
2022/07/10 10:20:41;;;;;;;4.53;1.00;;;17.50;99.90;;;;;;5104860;28;20035;-58
2022/07/10 10:23:12;;;;;;;4.40;1.35;;;17.90;99.90;;;;;;5099071;28;20028;-58
2022/07/10 10:25:39;;;;;;;5.47;1.10;;;18.60;99.90;;;;;;5097967;28;20061;-58
2022/07/10 10:28:07;;;;;;;3.65;0.95;;;19.00;99.90;;;;;;5099265;28;20034;-58
2022/07/10 10:30:38;;;;;;;4.82;1.25;;;19.30;97.70;;;;;;5099921;28;20039;-58
2022/07/10 10:33:04;;;;;;;6.07;1.30;;;19.50;97.60;;;;;;5098322;28;20012;-58
2022/07/10 10:35:46;;;;;;;4.28;1.30;;;19.60;95.70;;;;;;5098812;28;20027;-57
2022/07/10 10:38:13;;;;;;;4.28;0.98;;;19.70;93.60;;;;;;5098364;28;20138;-57
2022/07/10 10:40:39;;;;;;;4.88;1.30;;;19.70;94.30;;;;;;5096045;28;20016;-57
2022/07/10 10:43:20;;;;;;;3.67;0.90;;;19.40;91.70;;;;;;5096804;28;20039;-58
2022/07/10 10:45:47;;;;;;;4.25;1.20;;;19.50;93.30;;;;;;5097524;28;20015;-58
2022/07/10 10:48:20;;;;;;;4.45;0.77;;;19.40;94.00;;;;;;5094693;28;20077;-59
2022/07/10 10:50:53;;;;;;;6.22;1.73;;;19.30;94.20;;;;;;5093919;28;20724;-58
2022/07/10 10:53:31;;;;;;;4.85;1.00;;;19.50;94.40;;;;;;5098118;28;20047;-58
2022/07/10 10:55:59;;;;;;;8.00;1.88;;;19.80;94.30;;;;;;5097466;28;20028;-58
2022/07/10 10:58:26;;;;;;;3.22;0.93;;;19.90;90.60;;;;;;5099390;28;20040;-59
2022/07/10 11:00:52;;;;;;;4.50;0.93;;;20.00;86.70;;;;;;5097893;28;20024;-58
2022/07/10 11:03:23;;;;;;;5.35;1.20;;;20.10;89.80;;;;;;5099121;28;20479;-58
2022/07/10 11:05:53;;;;;;;3.50;0.65;;;20.40;82.10;;;;;;5099341;28;20028;-59
2022/07/10 11:08:38;;;;;;;3.13;0.60;;;20.40;79.90;;;;;;5097683;28;20102;-58
2022/07/10 11:11:32;;;;;;;4.50;0.52;;;20.50;79.30;;;;;;5100201;28;20560;-57
2022/07/10 11:13:58;;;;;;;4.47;0.82;;;21.10;82.00;;;;;;5098746;28;20032;-59
2022/07/10 11:16:24;;;;;;;6.95;0.77;;;21.20;79.20;;;;;;5100256;28;20024;-60
2022/07/10 11:18:54;;;;;;;4.45;0.60;;;21.30;80.00;;;;;;5099801;28;20030;-58
2022/07/10 11:21:25;;;;;;;9.75;1.70;;;21.30;81.80;;;;;;5099224;28;20048;-58
2022/07/10 11:23:57;;;;;;;5.32;0.73;;;21.20;80.30;;;;;;5097901;28;20024;-59
2022/07/10 11:27:01;;;;;;;8.80;0.90;;;21.00;79.70;;;;;;5097683;28;20096;-59
2022/07/10 11:29:26;;;;;;;3.42;0.80;;;20.80;78.40;;;;;;5099474;28;20115;-58
2022/07/10 11:31:53;;;;;;;6.28;0.82;;;20.40;79.20;;;;;;5101531;28;20115;-59
2022/07/10 11:34:21;;;;;;;5.95;0.73;;;20.70;83.80;;;;;;5099615;28;20042;-60
2022/07/10 11:36:47;;;;;;;6.03;0.75;;;20.70;79.40;;;;;;5101872;28;20032;-58
2022/07/10 11:39:13;;;;;;;3.43;0.30;;;20.60;80.10;;;;;;5108914;28;20032;-59
2022/07/10 11:41:44;;;;;;;3.30;0.50;;;21.10;75.00;;;;;;5111825;28;20265;-58
2022/07/10 11:44:18;;;;;;;3.83;0.50;;;20.90;75.30;;;;;;5112967;28;20067;-59
2022/07/10 11:46:48;;;;;;;2.13;0.80;;;21.20;78.10;;;;;;5110544;28;20011;-59
2022/07/10 11:49:15;;;;;;;4.82;0.63;;;21.10;72.70;;;;;;5102926;28;20043;-59
2022/07/10 11:51:42;;;;;;;2.28;0.40;;;20.80;70.90;;;;;;5103952;28;20034;-60
2022/07/10 11:54:10;;;;;;;3.20;0.77;;;20.60;73.80;;;;;;5109880;28;20032;-59
2022/07/10 11:56:39;;;;;;;2.00;0.85;;;20.40;73.70;;;;;;5102479;28;20032;-60
2022/07/10 11:59:11;;;;;;;3.58;0.73;;;20.10;76.20;;;;;;5102113;28;20538;-62
2022/07/10 12:01:48;;;;;;;3.30;0.65;;;20.00;75.50;;;;;;5098731;28;20043;-60
2022/07/10 12:04:16;;;;;;;5.57;0.43;;;19.70;78.40;;;;;;5112086;28;20497;-59
2022/07/10 12:06:44;;;;;;;1.50;0.82;;;19.60;77.40;;;;;;5113193;28;20057;-60
2022/07/10 12:09:12;;;;;;;3.75;1.60;;;19.30;77.00;;;;;;5101151;28;20040;-60
2022/07/10 12:11:40;;;;;;;4.40;0.90;;;19.10;79.40;;;;;;5101470;28;20027;-60
2022/07/10 12:14:19;;;;;;;2.78;1.02;;;19.10;81.10;;;;;;5101022;28;20032;-59
2022/07/10 12:16:53;;;;;;;2.47;0.57;;;19.00;81.30;;;;;;5108170;28;20528;-59
2022/07/10 12:19:24;;;;;;;3.17;0.50;;;19.00;82.80;;;;;;5100805;28;20526;-60
2022/07/10 12:21:51;;;;;;;1.30;0.52;;;19.10;77.40;;;;;;5101276;28;20024;-59
2022/07/10 12:24:19;;;;;;;4.47;0.63;;;18.90;76.90;;;;;;5101426;28;20047;-61
2022/07/10 12:26:48;;;;;;;2.30;0.70;;;18.80;80.40;;;;;;5102974;28;20047;-61
2022/07/10 12:29:26;;;;;;;2.88;0.73;;;18.60;81.30;;;;;;5104234;28;20036;-61
2022/07/10 12:31:57;;;;;;;7.90;1.02;;;18.50;82.80;;;;;;5095412;28;20028;-61
2022/07/10 12:34:37;;;;;;;2.25;1.25;;;18.30;83.60;;;;;;5083392;28;20423;-60
2022/07/10 12:37:10;;;;;;;2.33;0.50;;;18.00;84.40;;;;;;5101531;28;20027;-61
2022/07/10 12:39:38;;;;;;;7.70;0.68;;;17.80;85.70;;;;;;5099192;28;20028;-61
2022/07/10 12:42:06;;;;;;;4.88;1.13;;;17.80;87.10;;;;;;5099070;28;20727;-59
2022/07/10 12:44:43;;;;;;;3.65;1.02;;;17.80;88.10;;;;;;5105796;28;20035;-59
2022/07/10 12:47:13;;;;;;;13.90;0.93;;;17.90;86.00;;;;;;5101844;28;20024;-59
2022/07/10 12:49:49;;;;;;;4.70;0.70;;;17.90;85.10;;;;;;5103181;28;20028;-59
2022/07/10 12:52:22;;;;;;;2.80;0.60;;;18.00;87.10;;;;;;5099492;28;20019;-60